Time;durP1;ratioP1;P1;durP2;ratioP2;P2;SDS_P1;SDS_P2;PMS_P1;PMS_P2;Temp;Humidity;BMP_temperature;BMP_pressure;BME280_temperature;BME280_humidity;BME280_pressure;Samples;Min_cycle;Max_cycle;Signal;HPM_P1;HPM_P2
2024/03/19 00:01:43;;;;;;;8.80;6.55;;;12.00;99.90;;;;;;5032361;28;20177;-75
2024/03/19 00:04:09;;;;;;;7.90;6.23;;;12.00;99.90;;;;;;5031969;28;20184;-75
2024/03/19 00:06:35;;;;;;;7.70;5.37;;;11.90;99.90;;;;;;5032455;28;20626;-75
2024/03/19 00:09:01;;;;;;;12.53;6.33;;;11.90;99.90;;;;;;5049971;28;20176;-75
2024/03/19 00:11:27;;;;;;;8.75;6.82;;;11.90;99.90;;;;;;5032157;28;20679;-75
2024/03/19 00:13:52;;;;;;;7.17;5.27;;;11.80;99.90;;;;;;5028407;28;20245;-75
2024/03/19 00:16:19;;;;;;;9.53;5.40;;;11.80;99.90;;;;;;5030241;28;20754;-75
2024/03/19 00:18:44;;;;;;;6.90;4.45;;;11.80;99.90;;;;;;5030681;28;20181;-73
2024/03/19 00:21:10;;;;;;;6.00;4.80;;;11.80;99.90;;;;;;5031016;28;20561;-73
2024/03/19 00:23:36;;;;;;;7.07;5.00;;;11.80;99.90;;;;;;5013149;28;20172;-73
2024/03/19 00:26:02;;;;;;;8.20;5.43;;;11.80;99.90;;;;;;5061305;28;20622;-73
2024/03/19 00:28:28;;;;;;;8.20;5.22;;;11.90;99.90;;;;;;5029125;28;20315;-73
2024/03/19 00:30:57;;;;;;;9.97;6.03;;;11.90;99.90;;;;;;5030186;28;20181;-73
2024/03/19 00:33:23;;;;;;;8.38;6.55;;;11.90;99.90;;;;;;5028084;28;20624;-73
2024/03/19 00:35:48;;;;;;;8.90;4.90;;;12.00;99.90;;;;;;5030263;28;20213;-73
2024/03/19 00:38:14;;;;;;;9.67;5.40;;;12.00;99.90;;;;;;5030026;28;20655;-74
2024/03/19 00:40:40;;;;;;;7.80;5.17;;;12.10;99.90;;;;;;5031833;28;20654;-74
2024/03/19 00:43:07;;;;;;;9.77;4.90;;;12.10;99.90;;;;;;5049472;28;20173;-73
2024/03/19 00:45:33;;;;;;;9.15;5.22;;;12.10;99.90;;;;;;5051660;28;20668;-72
2024/03/19 00:47:59;;;;;;;5.90;4.63;;;12.20;99.90;;;;;;5052323;28;20192;-73
2024/03/19 00:50:25;;;;;;;8.63;5.00;;;12.20;99.90;;;;;;5041100;28;20591;-73
2024/03/19 00:52:52;;;;;;;6.27;4.40;;;12.20;99.90;;;;;;5031608;28;20552;-73
2024/03/19 00:55:17;;;;;;;6.18;4.65;;;12.20;99.90;;;;;;5046601;28;20583;-74
2024/03/19 00:57:43;;;;;;;7.90;4.87;;;12.20;99.90;;;;;;5049458;28;20200;-73
2024/03/19 01:00:14;;;;;;;7.63;5.07;;;12.20;99.90;;;;;;5012806;28;20182;-73
2024/03/19 01:02:45;;;;;;;9.38;4.70;;;12.20;99.90;;;;;;5012884;28;20270;-73
2024/03/19 01:05:12;;;;;;;9.80;5.20;;;12.20;99.90;;;;;;5036467;28;20197;-73
2024/03/19 01:07:41;;;;;;;8.65;5.40;;;12.20;99.90;;;;;;5047184;28;20244;-73
2024/03/19 01:10:08;;;;;;;8.75;4.75;;;12.20;99.90;;;;;;5015873;28;20172;-73
2024/03/19 01:12:39;;;;;;;9.05;4.57;;;12.20;99.90;;;;;;5032539;28;20663;-74
2024/03/19 01:15:06;;;;;;;6.28;4.78;;;12.20;99.90;;;;;;5012095;28;20188;-74
2024/03/19 01:17:39;;;;;;;5.80;4.80;;;12.20;99.90;;;;;;5029714;28;20193;-74
2024/03/19 01:20:12;;;;;;;7.28;4.75;;;12.10;99.90;;;;;;5013236;28;20301;-74
2024/03/19 01:22:38;;;;;;;8.63;4.82;;;12.10;99.90;;;;;;5014850;28;20177;-74
2024/03/19 01:25:06;;;;;;;9.57;5.00;;;12.00;99.90;;;;;;5033032;28;20213;-73
2024/03/19 01:27:35;;;;;;;6.28;4.28;;;12.00;99.90;;;;;;5015616;28;20185;-73
2024/03/19 01:30:01;;;;;;;10.48;4.65;;;11.90;99.90;;;;;;5007608;28;20165;-73
2024/03/19 01:32:27;;;;;;;6.97;4.25;;;11.90;99.90;;;;;;5032488;28;20232;-72
2024/03/19 01:34:53;;;;;;;6.53;4.90;;;11.90;99.90;;;;;;5035918;28;20181;-73
2024/03/19 01:37:18;;;;;;;7.00;5.80;;;11.80;99.90;;;;;;5052884;28;20208;-72
2024/03/19 01:39:44;;;;;;;8.90;5.03;;;11.80;99.90;;;;;;5025279;28;20255;-73
2024/03/19 01:42:10;;;;;;;8.50;5.17;;;11.80;99.90;;;;;;5027986;28;20599;-73
2024/03/19 01:44:36;;;;;;;6.80;4.63;;;11.70;99.90;;;;;;5052253;28;20216;-73
2024/03/19 01:47:02;;;;;;;7.13;4.50;;;11.70;99.90;;;;;;5034935;28;20192;-73
2024/03/19 01:49:29;;;;;;;6.80;4.60;;;11.70;99.90;;;;;;5035025;28;20184;-73
2024/03/19 01:51:55;;;;;;;9.32;4.43;;;11.60;99.90;;;;;;5052563;28;20633;-73
2024/03/19 01:54:21;;;;;;;9.70;5.97;;;11.60;99.90;;;;;;5034004;28;20659;-74
2024/03/19 01:56:48;;;;;;;6.37;5.20;;;11.60;99.90;;;;;;5034762;28;20189;-74
2024/03/19 01:59:15;;;;;;;8.45;5.95;;;11.50;99.90;;;;;;5052596;28;21132;-73
2024/03/19 02:01:40;;;;;;;7.57;5.15;;;11.50;99.90;;;;;;5030874;28;20181;-74
2024/03/19 02:04:06;;;;;;;6.83;5.60;;;11.40;99.90;;;;;;5032179;28;20839;-74
2024/03/19 02:06:32;;;;;;;8.00;4.80;;;11.40;99.90;;;;;;5032273;28;20312;-73
2024/03/19 02:09:05;;;;;;;6.10;5.13;;;11.40;99.90;;;;;;5043359;28;20181;-74
2024/03/19 02:11:34;;;;;;;8.48;5.38;;;11.40;99.90;;;;;;5052266;28;20649;-73
2024/03/19 02:14:01;;;;;;;9.50;5.18;;;11.30;99.90;;;;;;5017246;28;20230;-74
2024/03/19 02:16:27;;;;;;;8.82;6.00;;;11.30;99.90;;;;;;5034362;28;20189;-74
2024/03/19 02:18:57;;;;;;;7.93;5.47;;;11.20;99.90;;;;;;5052111;28;20188;-74
2024/03/19 02:21:25;;;;;;;8.38;5.25;;;11.20;99.90;;;;;;5048761;28;20188;-74
2024/03/19 02:23:51;;;;;;;6.60;4.50;;;11.20;99.90;;;;;;5035324;28;20180;-73
2024/03/19 02:26:17;;;;;;;8.00;5.35;;;11.10;99.90;;;;;;5028648;28;20198;-73
2024/03/19 02:28:43;;;;;;;7.32;5.57;;;11.10;99.90;;;;;;5030659;28;20261;-73
2024/03/19 02:31:08;;;;;;;6.37;4.40;;;11.10;99.90;;;;;;5031756;28;20609;-74
2024/03/19 02:33:34;;;;;;;10.07;6.27;;;11.00;99.90;;;;;;5047595;28;20244;-74
2024/03/19 02:36:00;;;;;;;6.13;4.77;;;11.00;99.90;;;;;;5051710;28;20283;-74
2024/03/19 02:38:27;;;;;;;7.40;5.00;;;11.00;99.90;;;;;;5033725;28;20189;-74
2024/03/19 02:40:53;;;;;;;6.30;4.95;;;10.90;99.90;;;;;;5031833;28;20180;-74
2024/03/19 02:43:19;;;;;;;8.40;6.30;;;10.90;99.90;;;;;;5013336;28;20205;-74
2024/03/19 02:45:45;;;;;;;8.90;6.85;;;10.90;99.90;;;;;;5031757;28;20196;-74
2024/03/19 02:48:12;;;;;;;9.50;6.00;;;10.90;99.90;;;;;;4997687;28;20189;-74
2024/03/19 02:50:38;;;;;;;7.50;4.60;;;10.90;99.90;;;;;;5031843;28;20753;-74
2024/03/19 02:53:03;;;;;;;9.07;5.47;;;10.90;99.90;;;;;;5012910;28;20284;-74
2024/03/19 02:55:29;;;;;;;7.30;4.70;;;10.90;99.90;;;;;;5013797;28;20220;-74
2024/03/19 02:57:56;;;;;;;7.07;5.27;;;10.80;99.90;;;;;;4997420;28;20220;-74
2024/03/19 03:00:21;;;;;;;6.30;3.90;;;10.80;99.90;;;;;;5031406;28;20687;-74
2024/03/19 03:02:47;;;;;;;7.73;5.23;;;10.90;99.90;;;;;;5013108;28;20264;-74
2024/03/19 03:05:13;;;;;;;7.37;4.80;;;10.90;99.90;;;;;;5031466;28;20216;-74
2024/03/19 03:07:38;;;;;;;9.17;5.63;;;10.90;99.90;;;;;;5029545;28;20213;-74
2024/03/19 03:10:04;;;;;;;6.60;5.90;;;11.00;99.90;;;;;;5043101;28;20223;-74
2024/03/19 03:12:30;;;;;;;8.97;5.60;;;11.00;99.90;;;;;;5050452;28;20173;-73
2024/03/19 03:14:56;;;;;;;8.40;4.70;;;11.00;99.90;;;;;;5051490;28;20184;-74
2024/03/19 03:17:21;;;;;;;7.20;5.30;;;11.00;99.90;;;;;;5033384;28;20283;-74
2024/03/19 03:19:47;;;;;;;7.37;5.10;;;11.10;99.90;;;;;;5033398;28;20563;-73
2024/03/19 03:22:13;;;;;;;11.23;4.70;;;11.10;99.90;;;;;;5003681;28;20174;-73
2024/03/19 03:24:39;;;;;;;6.03;4.50;;;11.10;99.90;;;;;;5012879;28;20198;-74
2024/03/19 03:27:05;;;;;;;8.23;4.70;;;11.10;99.90;;;;;;5031006;28;20201;-74
2024/03/19 03:29:31;;;;;;;6.00;5.33;;;11.10;99.90;;;;;;5031019;28;20248;-73
2024/03/19 03:31:56;;;;;;;9.33;5.20;;;11.20;99.90;;;;;;5031142;28;20587;-73
2024/03/19 03:34:24;;;;;;;8.70;5.60;;;11.20;99.90;;;;;;5012705;28;20595;-73
2024/03/19 03:36:49;;;;;;;7.15;5.35;;;11.20;99.90;;;;;;5012672;28;20624;-73
2024/03/19 03:39:16;;;;;;;6.10;4.83;;;11.20;99.90;;;;;;5035728;28;20184;-75
2024/03/19 03:41:42;;;;;;;7.13;6.35;;;11.10;99.90;;;;;;5032617;28;20268;-73
2024/03/19 03:44:08;;;;;;;8.60;6.20;;;11.10;99.90;;;;;;5037595;28;20200;-73
2024/03/19 03:46:34;;;;;;;6.28;5.00;;;11.10;99.90;;;;;;5030724;28;20192;-73
2024/03/19 03:49:00;;;;;;;6.43;4.22;;;11.10;99.90;;;;;;5032018;28;20180;-73
2024/03/19 03:51:26;;;;;;;8.83;5.07;;;11.10;99.90;;;;;;5035886;28;20542;-73
2024/03/19 03:53:51;;;;;;;10.00;5.97;;;11.10;99.90;;;;;;5012424;28;20516;-75
2024/03/19 03:56:17;;;;;;;6.10;5.23;;;11.00;99.90;;;;;;5030570;28;20244;-73
2024/03/19 03:58:43;;;;;;;8.13;5.50;;;11.00;99.90;;;;;;5030559;28;20181;-73
2024/03/19 04:01:09;;;;;;;6.90;4.93;;;11.00;99.90;;;;;;5039235;28;20177;-73
2024/03/19 04:03:36;;;;;;;7.00;4.47;;;11.00;99.90;;;;;;5031811;28;20174;-73
2024/03/19 04:06:01;;;;;;;7.47;5.10;;;10.90;99.90;;;;;;5050108;28;20370;-74
2024/03/19 04:08:27;;;;;;;10.37;5.00;;;10.90;99.90;;;;;;5050370;28;20289;-73
2024/03/19 04:10:53;;;;;;;6.03;4.93;;;10.90;99.90;;;;;;5050293;28;20235;-73
2024/03/19 04:13:19;;;;;;;8.57;6.20;;;10.90;99.90;;;;;;5031801;28;20628;-73
2024/03/19 04:15:44;;;;;;;5.67;4.40;;;10.90;99.90;;;;;;5032565;28;20301;-73
2024/03/19 04:18:10;;;;;;;6.27;5.20;;;11.00;99.90;;;;;;5032139;28;20197;-73
2024/03/19 04:20:35;;;;;;;6.87;5.47;;;10.90;99.90;;;;;;5032521;28;20169;-73
2024/03/19 04:23:01;;;;;;;7.37;5.10;;;11.00;99.90;;;;;;5043510;28;20548;-72
2024/03/19 04:25:27;;;;;;;7.70;5.33;;;11.00;99.90;;;;;;5022621;28;20191;-73
2024/03/19 04:27:53;;;;;;;8.37;4.77;;;11.00;99.90;;;;;;5053667;28;20209;-73
2024/03/19 04:30:20;;;;;;;6.30;4.88;;;11.00;99.90;;;;;;5029703;28;20585;-74
2024/03/19 04:32:46;;;;;;;8.48;5.20;;;11.00;99.90;;;;;;5028334;28;20237;-75
2024/03/19 04:35:11;;;;;;;7.60;5.07;;;11.00;99.90;;;;;;5034098;28;20654;-75
2024/03/19 04:37:37;;;;;;;8.57;4.83;;;10.90;99.90;;;;;;5016801;28;20661;-75
2024/03/19 04:40:04;;;;;;;9.10;5.83;;;10.90;99.90;;;;;;5041164;28;20188;-75
2024/03/19 04:42:30;;;;;;;7.50;5.35;;;10.90;99.90;;;;;;5049430;28;20185;-75
2024/03/19 04:44:55;;;;;;;7.87;5.30;;;10.90;99.90;;;;;;5029335;28;20259;-75
2024/03/19 04:47:21;;;;;;;5.60;4.27;;;10.90;99.90;;;;;;5029874;28;20276;-75
2024/03/19 04:49:47;;;;;;;11.03;5.60;;;10.90;99.90;;;;;;5029948;28;21286;-74
2024/03/19 04:52:13;;;;;;;8.07;6.27;;;11.00;99.90;;;;;;5030122;28;20176;-75
2024/03/19 04:54:39;;;;;;;6.50;4.27;;;11.00;99.90;;;;;;5031568;28;20204;-75
2024/03/19 04:57:04;;;;;;;5.37;4.80;;;11.00;99.90;;;;;;5033896;28;20197;-75
2024/03/19 04:59:30;;;;;;;9.35;5.35;;;11.00;99.90;;;;;;5033634;28;20170;-75
2024/03/19 05:01:56;;;;;;;7.87;5.27;;;11.00;99.90;;;;;;5033130;28;20176;-75
2024/03/19 05:04:22;;;;;;;6.70;5.80;;;11.00;99.90;;;;;;5031702;28;20185;-75
2024/03/19 05:06:47;;;;;;;8.83;5.30;;;11.00;99.90;;;;;;5050511;28;20208;-75
2024/03/19 05:09:15;;;;;;;8.80;6.23;;;11.10;99.90;;;;;;5053745;28;20589;-75
2024/03/19 05:11:41;;;;;;;8.70;5.10;;;11.10;99.90;;;;;;5019054;28;20630;-75
2024/03/19 05:14:06;;;;;;;8.90;5.05;;;11.10;99.90;;;;;;5052979;28;20280;-76
2024/03/19 05:16:32;;;;;;;9.53;5.23;;;11.10;99.90;;;;;;5046612;28;20309;-77
2024/03/19 05:18:58;;;;;;;6.10;5.20;;;11.10;99.90;;;;;;5032238;28;20216;-77
2024/03/19 05:21:24;;;;;;;8.20;5.13;;;11.10;99.90;;;;;;5033327;28;20527;-77
2024/03/19 05:23:50;;;;;;;7.35;4.22;;;11.10;99.90;;;;;;5034898;28;20197;-76
2024/03/19 05:26:15;;;;;;;8.20;5.73;;;11.10;99.90;;;;;;5035475;28;20740;-76
2024/03/19 05:28:41;;;;;;;7.00;5.00;;;11.20;99.90;;;;;;5018996;28;20639;-76
2024/03/19 05:31:24;;;;;;;6.23;5.10;;;11.20;99.90;;;;;;5052914;28;20230;-75
2024/03/19 05:33:51;;;;;;;6.85;5.07;;;11.20;99.90;;;;;;5052771;28;20551;-76
2024/03/19 05:36:16;;;;;;;8.95;5.07;;;11.20;99.90;;;;;;5035505;28;20176;-76
2024/03/19 05:38:43;;;;;;;8.80;5.40;;;11.20;99.90;;;;;;5052390;28;20173;-76
2024/03/19 05:41:10;;;;;;;8.38;5.53;;;11.20;99.90;;;;;;5047542;28;20643;-76
2024/03/19 05:43:35;;;;;;;7.78;5.10;;;11.20;99.90;;;;;;5032520;28;20225;-75
2024/03/19 05:46:01;;;;;;;7.20;4.83;;;11.20;99.90;;;;;;5044078;28;20192;-77
2024/03/19 05:48:27;;;;;;;6.67;4.33;;;11.20;99.90;;;;;;5021640;28;20296;-75
2024/03/19 05:50:52;;;;;;;8.80;4.47;;;11.20;99.90;;;;;;5043032;28;20185;-76
2024/03/19 05:53:18;;;;;;;8.57;5.23;;;11.30;99.90;;;;;;5041414;28;21150;-75
2024/03/19 05:55:44;;;;;;;8.07;5.20;;;11.30;99.90;;;;;;5029019;28;20185;-76
2024/03/19 05:58:10;;;;;;;9.20;5.93;;;11.40;99.90;;;;;;5039022;28;20202;-75
2024/03/19 06:00:35;;;;;;;7.73;4.67;;;11.40;99.90;;;;;;5031337;28;20190;-75
2024/03/19 06:03:01;;;;;;;8.53;5.67;;;11.40;99.90;;;;;;5030804;28;20272;-76
2024/03/19 06:05:27;;;;;;;9.23;6.57;;;11.40;99.90;;;;;;5030324;28;20285;-75
2024/03/19 06:07:53;;;;;;;6.60;5.20;;;11.50;99.90;;;;;;5046371;28;20611;-75
2024/03/19 06:10:18;;;;;;;11.33;5.43;;;11.50;99.90;;;;;;5064422;28;20174;-75
2024/03/19 06:12:44;;;;;;;9.50;5.27;;;11.50;99.90;;;;;;5031890;28;20181;-76
2024/03/19 06:15:10;;;;;;;7.63;4.63;;;11.60;99.90;;;;;;5031292;28;20182;-77
2024/03/19 06:17:36;;;;;;;6.43;4.30;;;11.60;99.90;;;;;;5054864;28;20199;-77
2024/03/19 06:20:04;;;;;;;13.02;5.88;;;11.60;99.90;;;;;;5041028;28;20232;-76
2024/03/19 06:22:30;;;;;;;5.82;4.18;;;11.60;99.90;;;;;;5016193;28;20238;-77
2024/03/19 06:24:55;;;;;;;11.23;5.90;;;11.60;99.90;;;;;;5050108;28;20217;-77
2024/03/19 06:27:21;;;;;;;7.30;4.80;;;11.70;99.90;;;;;;5029758;28;20189;-77
2024/03/19 06:29:47;;;;;;;7.17;4.23;;;11.70;99.90;;;;;;5031095;28;20232;-77
2024/03/19 06:32:13;;;;;;;6.77;4.50;;;11.80;99.90;;;;;;5032098;28;20166;-76
2024/03/19 06:34:39;;;;;;;6.45;4.80;;;11.90;99.90;;;;;;5031959;28;20717;-78
2024/03/19 06:37:05;;;;;;;6.90;5.30;;;12.00;99.90;;;;;;5031717;28;20202;-77
2024/03/19 06:39:30;;;;;;;5.33;4.67;;;12.10;99.90;;;;;;5033702;28;20188;-76
2024/03/19 06:41:56;;;;;;;8.30;6.13;;;12.10;99.90;;;;;;5043138;28;20268;-76
2024/03/19 06:44:22;;;;;;;8.77;6.27;;;12.20;99.90;;;;;;5046306;28;20178;-79
2024/03/19 06:46:47;;;;;;;7.90;4.67;;;12.20;99.90;;;;;;5032730;28;20201;-76
2024/03/19 06:49:13;;;;;;;11.43;5.27;;;12.30;99.90;;;;;;5031371;28;20202;-76
2024/03/19 06:51:39;;;;;;;6.45;4.78;;;12.40;99.90;;;;;;5037786;28;20360;-77
2024/03/19 06:54:05;;;;;;;8.33;4.87;;;12.40;99.90;;;;;;5053632;28;20181;-77
2024/03/19 06:56:31;;;;;;;8.40;5.47;;;12.50;99.90;;;;;;5066098;28;20294;-77
2024/03/19 06:58:57;;;;;;;7.53;6.00;;;12.60;99.90;;;;;;5063040;28;20263;-78
2024/03/19 07:01:24;;;;;;;7.27;4.30;;;12.70;99.90;;;;;;5034990;28;20173;-77
2024/03/19 07:03:49;;;;;;;8.63;5.50;;;12.70;99.90;;;;;;5034383;28;20184;-78
2024/03/19 07:06:16;;;;;;;9.80;7.37;;;12.80;99.90;;;;;;5032187;28;20652;-78
2024/03/19 07:08:47;;;;;;;8.80;5.40;;;12.90;99.90;;;;;;5040766;28;20615;-77
2024/03/19 07:11:13;;;;;;;9.00;6.33;;;13.00;99.90;;;;;;5049516;28;20585;-77
2024/03/19 07:13:39;;;;;;;6.87;5.40;;;13.10;99.90;;;;;;5047874;28;20663;-77
2024/03/19 07:16:06;;;;;;;13.43;7.13;;;13.30;99.90;;;;;;5069780;28;20588;-77
2024/03/19 07:18:32;;;;;;;8.67;6.10;;;13.30;99.90;;;;;;5041445;28;20587;-77
2024/03/19 07:20:58;;;;;;;10.43;5.70;;;13.30;99.90;;;;;;5012092;28;21022;-77
2024/03/19 07:23:23;;;;;;;11.43;6.30;;;13.30;99.90;;;;;;5022896;28;21141;-76
2024/03/19 07:25:49;;;;;;;8.00;6.47;;;13.40;99.90;;;;;;5049730;28;20209;-76
2024/03/19 07:28:16;;;;;;;9.93;6.57;;;13.50;99.90;;;;;;5018066;28;20688;-77
2024/03/19 07:30:41;;;;;;;8.00;5.23;;;13.50;99.90;;;;;;5044824;28;20174;-77
2024/03/19 07:33:07;;;;;;;8.10;5.90;;;13.50;99.90;;;;;;5022314;28;21205;-77
2024/03/19 07:35:34;;;;;;;8.60;6.60;;;13.50;99.90;;;;;;5033089;28;20277;-78
2024/03/19 07:38:00;;;;;;;8.23;6.63;;;13.50;99.90;;;;;;5021239;28;20657;-78
2024/03/19 07:40:26;;;;;;;7.10;5.57;;;13.50;99.90;;;;;;5036078;28;20579;-77
2024/03/19 07:42:52;;;;;;;7.87;5.60;;;13.50;99.90;;;;;;5045531;28;21133;-77
2024/03/19 07:45:18;;;;;;;10.67;6.60;;;13.60;99.90;;;;;;5032442;28;20212;-76
2024/03/19 07:47:45;;;;;;;6.73;6.00;;;13.60;99.90;;;;;;5024820;28;20746;-77
2024/03/19 07:50:17;;;;;;;8.47;5.27;;;13.60;99.90;;;;;;5040800;28;21193;-75
2024/03/19 07:52:44;;;;;;;7.90;5.83;;;13.70;99.90;;;;;;5049010;28;20177;-75
2024/03/19 07:55:10;;;;;;;8.53;6.80;;;13.70;99.90;;;;;;5047982;28;20607;-75
2024/03/19 07:57:36;;;;;;;11.87;7.40;;;13.80;99.90;;;;;;5035678;28;20654;-75
2024/03/19 08:00:09;;;;;;;9.60;6.30;;;13.80;99.90;;;;;;5040673;28;20598;-74
2024/03/19 08:02:39;;;;;;;9.70;5.40;;;13.80;99.90;;;;;;5037878;28;20177;-74
2024/03/19 08:05:08;;;;;;;11.83;5.80;;;13.90;99.90;;;;;;5039652;28;20968;-74
2024/03/19 08:07:36;;;;;;;9.60;5.90;;;13.90;99.90;;;;;;5045757;28;20623;-74
2024/03/19 08:10:03;;;;;;;7.27;6.07;;;13.90;99.90;;;;;;5031010;28;20583;-74
2024/03/19 08:12:29;;;;;;;6.57;5.97;;;13.90;99.90;;;;;;5038397;28;20572;-74
2024/03/19 08:15:00;;;;;;;10.97;6.00;;;13.90;99.90;;;;;;5020621;28;20604;-74
2024/03/19 08:17:27;;;;;;;8.70;5.90;;;13.90;99.90;;;;;;5034379;28;20201;-75
2024/03/19 08:19:54;;;;;;;7.53;5.60;;;14.00;99.90;;;;;;5049510;28;20583;-75
2024/03/19 08:22:20;;;;;;;9.37;6.30;;;14.00;99.90;;;;;;5029859;28;20690;-74
2024/03/19 08:24:49;;;;;;;9.80;6.87;;;14.00;99.90;;;;;;5028804;28;20722;-75
2024/03/19 08:27:18;;;;;;;10.13;5.97;;;14.10;99.90;;;;;;5029418;28;20188;-75
2024/03/19 08:29:44;;;;;;;7.43;5.40;;;14.10;99.90;;;;;;5046749;28;20682;-75
2024/03/19 08:32:09;;;;;;;8.83;5.60;;;14.20;99.90;;;;;;5037363;28;20679;-75
2024/03/19 08:34:35;;;;;;;13.83;6.83;;;14.20;99.90;;;;;;5011113;28;20177;-76
2024/03/19 08:37:02;;;;;;;14.50;6.63;;;14.30;99.90;;;;;;5044834;28;20205;-75
2024/03/19 08:39:28;;;;;;;9.17;6.17;;;14.30;99.90;;;;;;5023879;28;21200;-75
2024/03/19 08:41:54;;;;;;;7.47;5.90;;;14.30;99.90;;;;;;5049993;28;20687;-75
2024/03/19 08:44:20;;;;;;;8.00;5.40;;;14.30;99.90;;;;;;5053141;28;20678;-75
2024/03/19 08:46:46;;;;;;;9.10;5.40;;;14.30;99.90;;;;;;5036005;28;21044;-75
2024/03/19 08:49:12;;;;;;;8.83;5.20;;;14.40;99.90;;;;;;5035740;28;20683;-75
2024/03/19 08:51:37;;;;;;;7.00;4.60;;;14.40;99.90;;;;;;5019217;28;20698;-75
2024/03/19 08:54:04;;;;;;;10.57;5.77;;;14.30;99.90;;;;;;5044726;28;20592;-75
2024/03/19 08:56:32;;;;;;;6.13;5.20;;;14.40;99.90;;;;;;5027543;28;20561;-75
2024/03/19 08:58:58;;;;;;;8.50;5.30;;;14.40;99.90;;;;;;5026989;28;20603;-76
2024/03/19 09:01:24;;;;;;;8.57;5.63;;;14.40;99.90;;;;;;5041868;28;20580;-76
2024/03/19 09:03:51;;;;;;;10.23;5.43;;;14.50;99.90;;;;;;5041529;28;20599;-75
2024/03/19 09:06:19;;;;;;;9.03;5.13;;;14.50;99.90;;;;;;5018121;28;20583;-76
2024/03/19 09:08:45;;;;;;;11.80;6.70;;;14.50;99.90;;;;;;5035171;28;20603;-76
2024/03/19 09:11:11;;;;;;;10.20;6.27;;;14.50;99.90;;;;;;5043656;28;20568;-76
2024/03/19 09:13:36;;;;;;;8.03;6.10;;;14.50;99.90;;;;;;5023182;28;20272;-76
2024/03/19 09:16:02;;;;;;;8.10;6.60;;;14.50;99.90;;;;;;5050550;28;20583;-76
2024/03/19 09:18:28;;;;;;;7.70;5.50;;;14.60;99.90;;;;;;5045258;28;20197;-75
2024/03/19 09:20:54;;;;;;;10.53;5.97;;;14.60;99.90;;;;;;5044530;28;20637;-76
2024/03/19 09:23:20;;;;;;;9.47;4.90;;;14.70;99.90;;;;;;5026660;28;20180;-75
2024/03/19 09:25:46;;;;;;;7.07;5.73;;;14.80;99.90;;;;;;5053170;28;20193;-76
2024/03/19 09:28:11;;;;;;;9.00;6.40;;;15.10;99.90;;;;;;5053097;28;20197;-76
2024/03/19 09:30:37;;;;;;;8.37;5.17;;;15.30;99.90;;;;;;5034661;28;20678;-76
2024/03/19 09:33:07;;;;;;;7.80;5.73;;;15.60;99.90;;;;;;5034235;28;20184;-76
2024/03/19 09:35:34;;;;;;;10.83;6.60;;;16.00;99.90;;;;;;5034862;28;20177;-76
2024/03/19 09:38:00;;;;;;;7.20;5.47;;;16.40;99.90;;;;;;5052706;28;20611;-76
2024/03/19 09:40:27;;;;;;;7.90;6.20;;;16.50;99.90;;;;;;5033477;28;20580;-76
2024/03/19 09:42:54;;;;;;;7.87;5.70;;;16.60;99.90;;;;;;5052272;28;20598;-76
2024/03/19 09:45:23;;;;;;;10.00;6.37;;;16.80;99.90;;;;;;5032554;28;20662;-76
2024/03/19 09:47:48;;;;;;;6.20;4.80;;;17.00;99.90;;;;;;5030151;28;20622;-76
2024/03/19 09:50:16;;;;;;;8.50;4.57;;;17.30;99.90;;;;;;5050161;28;20579;-76
2024/03/19 09:52:43;;;;;;;7.30;4.90;;;17.60;99.90;;;;;;5038889;28;20181;-77
2024/03/19 09:55:15;;;;;;;6.53;3.90;;;18.00;99.90;;;;;;5044988;28;20584;-77
2024/03/19 09:57:46;;;;;;;7.97;4.10;;;18.30;99.90;;;;;;5012098;28;20614;-76
2024/03/19 10:00:30;;;;;;;6.97;4.17;;;18.70;99.90;;;;;;5050064;28;20637;-77
2024/03/19 10:02:56;;;;;;;7.10;4.40;;;19.00;99.90;;;;;;5045160;28;20711;-76
2024/03/19 10:05:23;;;;;;;5.47;4.37;;;19.50;99.90;;;;;;5043592;28;20665;-77
2024/03/19 10:07:51;;;;;;;6.30;5.23;;;20.00;99.90;;;;;;5043972;28;20627;-77
2024/03/19 10:10:17;;;;;;;5.97;3.83;;;20.50;99.90;;;;;;5023508;28;20583;-76
2024/03/19 10:12:43;;;;;;;4.47;2.93;;;21.10;99.90;;;;;;5039657;28;20619;-76
2024/03/19 10:15:20;;;;;;;5.17;3.20;;;21.90;99.90;;;;;;5047903;28;20579;-77
2024/03/19 10:17:48;;;;;;;4.00;3.10;;;22.50;99.90;;;;;;5037236;28;20642;-77
2024/03/19 10:20:18;;;;;;;4.80;2.90;;;23.10;99.90;;;;;;5029050;28;20591;-76
2024/03/19 10:22:47;;;;;;;4.97;2.63;;;23.60;99.90;;;;;;5039530;28;20592;-77
2024/03/19 10:25:14;;;;;;;4.80;2.80;;;23.90;99.90;;;;;;5044038;28;20724;-75
2024/03/19 10:27:48;;;;;;;2.90;2.60;;;24.20;99.90;;;;;;5033940;28;20620;-75
2024/03/19 10:30:20;;;;;;;4.80;2.80;;;24.30;99.90;;;;;;5043110;28;20592;-76
2024/03/19 10:32:46;;;;;;;4.20;2.33;;;24.60;99.90;;;;;;5037762;28;20593;-75
2024/03/19 10:35:20;;;;;;;8.17;3.33;;;24.50;99.90;;;;;;5023347;28;20691;-76
2024/03/19 10:37:51;;;;;;;6.00;2.90;;;24.40;99.90;;;;;;5045607;28;20731;-76
2024/03/19 10:40:18;;;;;;;6.10;2.63;;;24.10;99.90;;;;;;5039636;28;20591;-75
2024/03/19 10:42:47;;;;;;;6.63;2.53;;;23.90;99.90;;;;;;5021278;28;20615;-75
2024/03/19 10:45:19;;;;;;;4.43;2.30;;;23.60;99.90;;;;;;5040827;28;20727;-75
2024/03/19 10:47:46;;;;;;;3.53;2.03;;;23.30;99.90;;;;;;5008616;28;20647;-74
2024/03/19 10:50:14;;;;;;;5.97;3.13;;;23.10;99.90;;;;;;5031876;28;20583;-76
2024/03/19 10:52:53;;;;;;;4.60;2.60;;;23.00;99.90;;;;;;5038648;28;20581;-77
2024/03/19 10:55:20;;;;;;;4.13;2.37;;;22.80;99.90;;;;;;5041780;28;20588;-77
2024/03/19 10:57:47;;;;;;;3.60;2.40;;;22.70;99.90;;;;;;5043212;28;20606;-77
2024/03/19 11:00:17;;;;;;;6.33;1.97;;;23.00;99.90;;;;;;5024773;28;20671;-77
2024/03/19 11:02:47;;;;;;;4.33;2.40;;;23.30;99.90;;;;;;5038495;28;20942;-76
2024/03/19 11:05:21;;;;;;;5.33;1.47;;;23.20;99.90;;;;;;5040616;28;20981;-75
2024/03/19 11:07:51;;;;;;;2.97;1.50;;;23.30;99.90;;;;;;5024634;28;20631;-75
2024/03/19 11:10:27;;;;;;;5.00;2.17;;;23.30;99.90;;;;;;5024891;28;20587;-75
2024/03/19 11:12:58;;;;;;;4.07;2.23;;;23.40;99.90;;;;;;5035336;28;20595;-75
2024/03/19 11:15:24;;;;;;;2.70;1.43;;;23.40;99.90;;;;;;5049743;28;20588;-75
2024/03/19 11:17:49;;;;;;;2.63;1.10;;;23.50;99.90;;;;;;5016338;28;20615;-75
2024/03/19 11:20:18;;;;;;;3.00;1.70;;;23.50;99.90;;;;;;5050675;28;20595;-74
2024/03/19 11:22:50;;;;;;;2.90;1.60;;;23.40;99.90;;;;;;5049947;28;20610;-75
2024/03/19 11:25:17;;;;;;;6.07;1.57;;;23.30;99.90;;;;;;5042182;28;20719;-74
2024/03/19 11:27:50;;;;;;;3.53;1.20;;;23.40;99.90;;;;;;5050609;28;20615;-75
2024/03/19 11:30:18;;;;;;;6.40;1.47;;;23.60;96.70;;;;;;5016332;28;20677;-75
2024/03/19 11:32:48;;;;;;;3.70;1.90;;;23.80;99.90;;;;;;5049502;28;21133;-75
2024/03/19 11:35:18;;;;;;;3.30;1.03;;;24.00;99.90;;;;;;5016385;28;20608;-75
2024/03/19 11:37:51;;;;;;;3.10;1.20;;;24.20;99.90;;;;;;5015867;28;20682;-75
2024/03/19 11:40:20;;;;;;;2.73;1.33;;;24.40;97.20;;;;;;5022876;28;20595;-76
2024/03/19 11:42:49;;;;;;;2.50;1.00;;;24.50;99.90;;;;;;5037973;28;20746;-75
2024/03/19 11:45:16;;;;;;;4.20;1.10;;;24.50;99.00;;;;;;5039813;28;20620;-75
2024/03/19 11:47:44;;;;;;;4.60;0.90;;;24.40;99.10;;;;;;5041785;28;20595;-75
2024/03/19 11:50:19;;;;;;;3.07;1.03;;;24.30;99.00;;;;;;5041999;28;20580;-74
2024/03/19 11:52:48;;;;;;;2.43;0.90;;;24.40;98.70;;;;;;5041280;28;20595;-75
2024/03/19 11:55:20;;;;;;;2.37;0.90;;;24.60;99.50;;;;;;5040783;28;20587;-75
2024/03/19 11:57:48;;;;;;;2.73;1.13;;;24.70;99.50;;;;;;5009777;28;20661;-75
2024/03/19 12:00:14;;;;;;;3.67;1.03;;;24.90;96.70;;;;;;5031693;28;20599;-75
2024/03/19 12:02:41;;;;;;;6.60;1.20;;;24.70;95.60;;;;;;5049177;28;20598;-75
2024/03/19 12:05:15;;;;;;;4.33;1.23;;;24.50;94.80;;;;;;5041375;28;21469;-75
2024/03/19 12:07:47;;;;;;;3.40;1.00;;;24.50;95.40;;;;;;5034795;28;20635;-75
2024/03/19 12:10:24;;;;;;;3.80;1.23;;;24.50;95.70;;;;;;5012418;28;20584;-75
2024/03/19 12:12:54;;;;;;;3.90;1.40;;;24.50;93.70;;;;;;5036479;28;20588;-75
2024/03/19 12:15:25;;;;;;;5.37;1.00;;;24.10;90.30;;;;;;5020687;28;20599;-75
2024/03/19 12:17:53;;;;;;;3.70;1.13;;;23.80;92.10;;;;;;5023857;28;20953;-75
2024/03/19 12:20:20;;;;;;;2.93;0.80;;;23.50;92.70;;;;;;5041238;28;20679;-75
2024/03/19 12:22:50;;;;;;;3.70;1.03;;;23.30;93.10;;;;;;5048972;28;20681;-75
2024/03/19 12:25:17;;;;;;;4.33;1.07;;;23.00;91.60;;;;;;5041636;28;20628;-75
2024/03/19 12:27:43;;;;;;;3.30;1.07;;;22.90;93.20;;;;;;5046725;28;20611;-75
2024/03/19 12:30:13;;;;;;;3.67;1.17;;;22.90;93.00;;;;;;5058916;28;20677;-75
2024/03/19 12:35:33;;;;;;;3.53;1.00;;;22.90;91.80;;;;;;5030155;28;20629;-75
2024/03/19 12:37:59;;;;;;;1.90;0.90;;;23.00;93.50;;;;;;5036748;28;20611;-75
2024/03/19 12:40:26;;;;;;;2.87;0.80;;;22.90;92.50;;;;;;5032188;28;20673;-75
2024/03/19 12:42:54;;;;;;;3.40;0.90;;;22.80;92.80;;;;;;5049168;28;20594;-76
2024/03/19 12:45:20;;;;;;;3.60;0.90;;;22.90;93.30;;;;;;5007500;28;21037;-76
2024/03/19 12:47:47;;;;;;;1.90;0.90;;;22.90;93.50;;;;;;4997719;28;20609;-75